Time;durP1;ratioP1;P1;durP2;ratioP2;P2;SDS_P1;SDS_P2;PMS_P1;PMS_P2;Temp;Humidity;BMP_temperature;BMP_pressure;BME280_temperature;BME280_humidity;BME280_pressure;Samples;Min_cycle;Max_cycle;Signal;HPM_P1;HPM_P2
2021/07/26 00:02:19;;;;;;;3.77;3.30;;;21.40;99.90;;;;;;5037200;28;20484;-81
2021/07/26 00:04:49;;;;;;;3.43;3.13;;;21.40;99.90;;;;;;5036423;28;20523;-80
2021/07/26 00:07:17;;;;;;;3.63;3.33;;;21.50;99.90;;;;;;5034352;28;20495;-81
2021/07/26 00:09:45;;;;;;;2.60;2.40;;;21.60;1.00;;;;;;5033532;28;20523;-81
2021/07/26 00:12:13;;;;;;;2.80;2.60;;;21.60;1.00;;;;;;5034723;28;20472;-81
2021/07/26 00:14:41;;;;;;;3.10;2.90;;;21.50;33.50;;;;;;5017718;28;20868;-83
2021/07/26 00:17:11;;;;;;;3.07;2.67;;;21.50;99.90;;;;;;5033305;28;20817;-81
2021/07/26 00:19:39;;;;;;;3.80;3.50;;;21.50;93.90;;;;;;5018200;28;20445;-81
2021/07/26 00:22:07;;;;;;;4.30;3.20;;;21.60;67.60;;;;;;5033056;28;20560;-82
2021/07/26 00:24:35;;;;;;;3.57;2.73;;;21.60;1.00;;;;;;5039465;28;20809;-81
2021/07/26 00:27:03;;;;;;;4.70;3.30;;;21.70;1.00;;;;;;5027876;28;20472;-81
2021/07/26 00:29:31;;;;;;;4.43;2.57;;;21.60;1.00;;;;;;5033640;28;20999;-82
2021/07/26 00:32:00;;;;;;;5.33;3.60;;;21.60;1.00;;;;;;5017017;28;20499;-81
2021/07/26 00:34:29;;;;;;;3.60;2.70;;;21.60;1.00;;;;;;5015709;28;20892;-80
2021/07/26 00:36:59;;;;;;;3.93;2.67;;;21.60;1.00;;;;;;5012960;28;20460;-81
2021/07/26 00:39:29;;;;;;;7.10;3.00;;;21.60;1.00;;;;;;5018543;28;22462;-84
2021/07/26 00:41:57;;;;;;;2.97;2.73;;;21.70;1.00;;;;;;5033134;28;21331;-80
2021/07/26 00:44:27;;;;;;;3.30;3.00;;;21.70;1.00;;;;;;5033465;28;20494;-82
2021/07/26 00:46:56;;;;;;;3.30;3.03;;;21.60;1.00;;;;;;5032363;28;20452;-80
2021/07/26 00:49:26;;;;;;;4.43;3.23;;;21.60;1.00;;;;;;5027694;28;20469;-80
2021/07/26 00:51:58;;;;;;;3.33;3.03;;;21.60;1.00;;;;;;5033779;28;20469;-79
2021/07/26 00:54:29;;;;;;;4.07;3.20;;;21.60;1.00;;;;;;5033987;28;20990;-81
2021/07/26 00:57:00;;;;;;;3.67;2.97;;;21.50;1.00;;;;;;5032549;28;20483;-81
2021/07/26 00:59:28;;;;;;;3.77;2.97;;;21.50;1.00;;;;;;5034392;28;20444;-80
2021/07/26 01:01:56;;;;;;;4.17;3.30;;;21.50;1.00;;;;;;5033423;28;20511;-80
2021/07/26 01:04:25;;;;;;;3.10;2.80;;;21.40;1.00;;;;;;5019872;28;20455;-80
2021/07/26 01:06:56;;;;;;;3.83;3.30;;;21.50;1.00;;;;;;5033266;28;20465;-79
2021/07/26 01:09:24;;;;;;;3.03;2.73;;;21.50;1.00;;;;;;5017458;28;20858;-81
2021/07/26 01:11:53;;;;;;;3.90;3.20;;;21.50;1.00;;;;;;5035417;28;20480;-81
2021/07/26 01:14:21;;;;;;;3.37;3.17;;;21.40;1.00;;;;;;5035370;28;20452;-81
2021/07/26 01:16:50;;;;;;;4.20;2.90;;;21.30;99.90;;;;;;5035914;28;20440;-82
2021/07/26 01:19:18;;;;;;;3.87;3.20;;;21.20;99.90;;;;;;5037156;28;20535;-82
2021/07/26 01:21:48;;;;;;;3.37;3.07;;;21.20;99.90;;;;;;5035247;28;20532;-81
2021/07/26 01:24:17;;;;;;;4.47;3.00;;;21.20;99.90;;;;;;5033658;28;20506;-81
2021/07/26 01:26:45;;;;;;;3.70;3.40;;;21.20;99.90;;;;;;5032931;28;20437;-81
2021/07/26 01:29:13;;;;;;;3.77;3.10;;;21.20;99.90;;;;;;5032621;28;20459;-81
2021/07/26 01:31:41;;;;;;;3.53;2.83;;;21.20;99.90;;;;;;5032967;28;20835;-82
2021/07/26 01:34:09;;;;;;;3.03;2.83;;;21.20;99.90;;;;;;5031987;28;20502;-81
2021/07/26 01:36:39;;;;;;;3.80;3.47;;;21.20;99.90;;;;;;5031641;28;20465;-82
2021/07/26 01:39:08;;;;;;;3.50;3.20;;;21.20;99.90;;;;;;5031885;28;20453;-84
2021/07/26 01:41:36;;;;;;;3.70;3.10;;;21.20;99.90;;;;;;5028156;28;20600;-82
2021/07/26 01:44:10;;;;;;;3.83;2.90;;;21.20;99.90;;;;;;5031069;28;20787;-81
2021/07/26 01:46:52;;;;;;;3.87;3.30;;;21.10;99.90;;;;;;5024439;28;20463;-82
2021/07/26 01:49:39;;;;;;;6.30;3.60;;;20.90;1.00;;;;;;5030680;28;20455;-81
2021/07/26 01:52:07;;;;;;;4.17;3.87;;;21.00;1.00;;;;;;5025962;28;20479;-82
2021/07/26 01:54:37;;;;;;;5.03;4.53;;;21.00;1.00;;;;;;5033957;28;20459;-82
2021/07/26 01:57:06;;;;;;;3.90;3.50;;;21.00;1.00;;;;;;5034293;28;20510;-83
2021/07/26 01:59:35;;;;;;;2.90;2.67;;;20.90;25.80;;;;;;5035272;28;20440;-82
2021/07/26 02:02:03;;;;;;;4.10;3.70;;;20.90;1.00;;;;;;5026605;28;20464;-83
2021/07/26 02:04:31;;;;;;;3.33;3.03;;;20.80;99.90;;;;;;5017114;28;20995;-83
2021/07/26 02:06:59;;;;;;;4.13;3.50;;;20.90;65.00;;;;;;5033191;28;20453;-82
2021/07/26 02:09:28;;;;;;;3.73;3.50;;;20.90;58.80;;;;;;5017398;28;20957;-82
2021/07/26 02:11:57;;;;;;;6.50;4.00;;;20.90;1.00;;;;;;5017400;28;20566;-82
2021/07/26 02:14:25;;;;;;;3.97;3.60;;;20.80;1.00;;;;;;5034433;28;20448;-80
2021/07/26 02:16:54;;;;;;;4.50;4.10;;;20.80;99.90;;;;;;5031798;28;20517;-79
2021/07/26 02:19:22;;;;;;;3.83;3.53;;;20.70;52.90;;;;;;5015271;28;20463;-83
2021/07/26 02:21:51;;;;;;;4.27;3.23;;;20.60;99.90;;;;;;5015857;28;20487;-82
2021/07/26 02:24:19;;;;;;;3.93;3.10;;;20.50;1.00;;;;;;5033932;28;20468;-82
2021/07/26 02:26:47;;;;;;;3.50;3.17;;;20.50;1.00;;;;;;5032753;28;21019;-80
2021/07/26 02:29:17;;;;;;;5.70;3.20;;;20.60;1.00;;;;;;5015750;28;20467;-82
2021/07/26 02:31:45;;;;;;;3.40;3.10;;;20.50;1.00;;;;;;5019252;28;20488;-80
2021/07/26 02:34:14;;;;;;;3.90;3.17;;;20.50;1.00;;;;;;5032350;28;20955;-81
2021/07/26 02:36:43;;;;;;;3.90;3.30;;;20.50;1.00;;;;;;5029206;28;20444;-80
2021/07/26 02:39:11;;;;;;;4.10;3.70;;;20.60;1.00;;;;;;5014303;28;20459;-81
2021/07/26 02:41:42;;;;;;;3.70;3.07;;;20.60;99.90;;;;;;5032684;28;20494;-81
2021/07/26 02:44:10;;;;;;;3.30;3.00;;;20.60;1.00;;;;;;5015114;28;20460;-81
2021/07/26 02:46:39;;;;;;;3.53;3.00;;;20.70;99.90;;;;;;5032114;28;20494;-82
2021/07/26 02:49:07;;;;;;;3.43;3.13;;;20.70;99.90;;;;;;5032445;28;20500;-81
2021/07/26 02:51:35;;;;;;;3.83;3.40;;;20.80;99.90;;;;;;5027212;28;20519;-81
2021/07/26 02:54:04;;;;;;;3.80;3.50;;;20.80;62.40;;;;;;5031605;28;20868;-81
2021/07/26 02:56:32;;;;;;;3.37;3.00;;;20.70;1.00;;;;;;5031485;28;20456;-83
2021/07/26 02:59:00;;;;;;;3.87;3.40;;;20.60;99.90;;;;;;5016129;28;20456;-82
2021/07/26 03:01:32;;;;;;;4.97;3.77;;;20.70;99.90;;;;;;5030968;28;20494;-82
2021/07/26 03:04:02;;;;;;;4.43;4.03;;;20.60;99.90;;;;;;5033192;28;20444;-83
2021/07/26 03:06:31;;;;;;;3.70;3.30;;;20.60;99.90;;;;;;5031841;28;20457;-82
2021/07/26 03:08:59;;;;;;;5.60;3.30;;;20.60;99.90;;;;;;5044030;28;20440;-83
2021/07/26 03:11:27;;;;;;;3.53;3.23;;;20.60;99.90;;;;;;5033794;28;20841;-82
2021/07/26 03:13:55;;;;;;;3.63;3.03;;;20.70;99.90;;;;;;5031311;28;20452;-80
2021/07/26 03:16:23;;;;;;;3.30;3.00;;;20.90;1.00;;;;;;5030277;28;20445;-80
2021/07/26 03:18:51;;;;;;;5.50;3.20;;;20.90;1.00;;;;;;5031873;28;20506;-81
2021/07/26 03:21:21;;;;;;;5.43;3.57;;;21.10;99.90;;;;;;5014593;28;20510;-81
2021/07/26 03:23:49;;;;;;;4.57;3.30;;;21.10;99.90;;;;;;5032116;28;20445;-82
2021/07/26 03:26:17;;;;;;;3.47;2.97;;;21.20;99.90;;;;;;5032192;28;20455;-80
2021/07/26 03:28:45;;;;;;;3.67;3.37;;;21.20;99.90;;;;;;5028131;28;20445;-83
2021/07/26 03:31:13;;;;;;;8.90;3.80;;;21.20;99.90;;;;;;5037847;28;20544;-81
2021/07/26 03:33:44;;;;;;;3.87;3.20;;;21.20;99.90;;;;;;5045186;28;20464;-82
2021/07/26 03:36:14;;;;;;;4.00;3.07;;;21.10;99.90;;;;;;5016119;28;20448;-82
2021/07/26 03:38:44;;;;;;;6.43;3.60;;;21.20;99.90;;;;;;5036518;28;20452;-81
2021/07/26 03:41:12;;;;;;;4.63;3.27;;;21.10;99.90;;;;;;5035486;28;20443;-81
2021/07/26 03:43:41;;;;;;;3.90;3.20;;;21.10;99.90;;;;;;5017403;28;20522;-82
2021/07/26 03:46:09;;;;;;;4.30;3.20;;;21.10;99.90;;;;;;5021081;28;20456;-81
2021/07/26 03:48:37;;;;;;;3.40;2.70;;;21.10;99.90;;;;;;5016761;28;20535;-81
2021/07/26 03:51:05;;;;;;;4.20;3.37;;;21.20;99.90;;;;;;5016880;28;20500;-82
2021/07/26 03:53:33;;;;;;;5.17;3.63;;;21.10;99.90;;;;;;5017748;28;20461;-81
2021/07/26 03:56:03;;;;;;;4.57;3.57;;;21.20;97.70;;;;;;5033311;28;20480;-82
2021/07/26 03:58:31;;;;;;;3.83;3.40;;;21.20;76.50;;;;;;5034298;28;20456;-83
2021/07/26 04:00:59;;;;;;;3.43;3.13;;;21.20;92.40;;;;;;5036185;28;20449;-83
2021/07/26 04:03:30;;;;;;;5.07;3.00;;;21.20;99.90;;;;;;5036192;28;20476;-83
2021/07/26 04:06:03;;;;;;;3.47;3.13;;;21.20;99.90;;;;;;5035620;28;20952;-83
2021/07/26 04:08:34;;;;;;;5.50;3.30;;;21.20;99.90;;;;;;5024343;28;20453;-83
2021/07/26 04:11:07;;;;;;;4.27;3.40;;;21.10;99.90;;;;;;5036833;28;20476;-82
2021/07/26 04:13:37;;;;;;;3.70;3.03;;;21.10;99.90;;;;;;5025464;28;20478;-82
2021/07/26 04:16:06;;;;;;;3.67;3.37;;;20.90;1.00;;;;;;5011493;28;20535;-82
2021/07/26 04:18:35;;;;;;;4.53;3.23;;;20.90;1.00;;;;;;5016925;28;20444;-81
2021/07/26 04:21:09;;;;;;;2.90;2.60;;;20.90;99.90;;;;;;5035671;28;20452;-81
2021/07/26 04:23:37;;;;;;;5.57;2.70;;;20.90;99.90;;;;;;5035914;28;21343;-85
2021/07/26 04:26:07;;;;;;;4.60;4.17;;;20.80;99.90;;;;;;5032413;28;20782;-80
2021/07/26 04:28:35;;;;;;;3.30;3.00;;;20.80;99.90;;;;;;5035449;28;20448;-81
2021/07/26 04:31:03;;;;;;;2.83;2.63;;;20.80;99.90;;;;;;5035859;28;20532;-81
2021/07/26 04:33:32;;;;;;;3.57;2.90;;;20.80;99.90;;;;;;5017757;28;20473;-80
2021/07/26 04:36:01;;;;;;;3.57;2.53;;;20.90;99.90;;;;;;5031915;28;20469;-82
2021/07/26 04:38:29;;;;;;;3.40;2.90;;;21.00;35.70;;;;;;5017062;28;20461;-80
2021/07/26 04:41:13;;;;;;;3.43;2.90;;;21.10;1.00;;;;;;5019897;28;20448;-81
2021/07/26 04:43:41;;;;;;;2.80;2.60;;;21.10;1.00;;;;;;5032748;28;20460;-82
2021/07/26 04:46:10;;;;;;;3.20;2.90;;;21.20;1.00;;;;;;5024997;28;20452;-81
2021/07/26 04:48:38;;;;;;;6.20;3.37;;;21.20;1.00;;;;;;5031021;28;20452;-80
2021/07/26 04:51:06;;;;;;;4.30;3.30;;;21.20;1.00;;;;;;5040658;28;20452;-82
2021/07/26 04:53:34;;;;;;;5.33;3.67;;;21.10;99.90;;;;;;5032463;28;20488;-80
2021/07/26 04:56:03;;;;;;;3.50;3.20;;;21.10;99.90;;;;;;5030888;28;20441;-81
2021/07/26 04:58:33;;;;;;;3.30;3.00;;;21.10;76.00;;;;;;5023955;28;20569;-76
2021/07/26 05:01:02;;;;;;;6.27;3.57;;;21.10;45.90;;;;;;5026653;28;20548;-71
2021/07/26 05:03:30;;;;;;;3.87;3.47;;;20.90;99.90;;;;;;5029001;28;20538;-71
2021/07/26 05:05:58;;;;;;;6.90;3.60;;;20.60;99.90;;;;;;5028265;28;20517;-71
2021/07/26 05:08:26;;;;;;;4.70;3.23;;;20.50;1.00;;;;;;5029611;28;20936;-72
2021/07/26 05:10:55;;;;;;;3.40;3.10;;;20.40;1.00;;;;;;5025761;28;20456;-71
2021/07/26 05:13:23;;;;;;;3.73;3.33;;;20.40;99.90;;;;;;5028787;28;20538;-71
2021/07/26 05:15:53;;;;;;;3.40;3.13;;;20.40;1.00;;;;;;5026581;28;20809;-72
2021/07/26 05:18:21;;;;;;;5.60;3.23;;;20.40;99.90;;;;;;5019253;28;20865;-73
2021/07/26 05:20:49;;;;;;;8.27;3.57;;;20.40;99.90;;;;;;5023051;28;20471;-71
2021/07/26 05:23:17;;;;;;;4.67;2.90;;;20.40;99.90;;;;;;5009212;28;20469;-71
2021/07/26 05:25:46;;;;;;;3.53;3.23;;;20.50;1.00;;;;;;5016962;28;20522;-71
2021/07/26 05:28:15;;;;;;;3.33;3.03;;;20.50;99.90;;;;;;5028003;28;20480;-71
2021/07/26 05:30:43;;;;;;;3.93;3.50;;;20.50;1.00;;;;;;5028934;28;21139;-71
2021/07/26 05:33:12;;;;;;;5.70;3.20;;;20.50;99.90;;;;;;5029213;28;20484;-72
2021/07/26 05:35:41;;;;;;;3.40;2.87;;;20.50;1.00;;;;;;5025782;28;20444;-73
2021/07/26 05:38:09;;;;;;;3.53;3.13;;;20.50;1.00;;;;;;5028467;28;20451;-71
2021/07/26 05:40:37;;;;;;;5.87;3.67;;;20.50;99.90;;;;;;5028747;28;20454;-72
2021/07/26 05:43:05;;;;;;;5.67;3.07;;;20.50;99.90;;;;;;5009641;28;20532;-71
2021/07/26 05:45:33;;;;;;;4.77;3.47;;;20.60;99.90;;;;;;5023948;28;20550;-70
2021/07/26 05:48:02;;;;;;;5.50;3.57;;;20.60;1.00;;;;;;5028684;28;21117;-71
2021/07/26 05:50:31;;;;;;;3.60;2.77;;;20.70;99.90;;;;;;5028131;28;20449;-71
2021/07/26 05:52:59;;;;;;;6.50;3.13;;;20.70;99.90;;;;;;5029094;28;20476;-71
2021/07/26 05:55:27;;;;;;;5.00;4.30;;;20.70;1.00;;;;;;5028257;28;20452;-71
2021/07/26 05:57:57;;;;;;;7.00;3.67;;;20.80;99.90;;;;;;5029040;28;20494;-71
2021/07/26 06:00:35;;;;;;;5.87;3.30;;;20.80;1.00;;;;;;5011107;28;20510;-72
2021/07/26 06:03:04;;;;;;;3.43;3.07;;;20.80;1.00;;;;;;5028526;28;20460;-72
2021/07/26 06:05:33;;;;;;;4.00;2.37;;;20.90;1.00;;;;;;5028140;28;20791;-71
2021/07/26 06:08:01;;;;;;;7.07;2.70;;;20.90;1.00;;;;;;5028236;28;20448;-71
2021/07/26 06:10:30;;;;;;;4.27;2.83;;;20.80;1.00;;;;;;5028730;28;20440;-72
2021/07/26 06:12:58;;;;;;;3.33;2.53;;;20.90;1.00;;;;;;5020508;28;21012;-71
2021/07/26 06:15:26;;;;;;;4.47;2.53;;;20.90;1.00;;;;;;5028660;28;20464;-72
2021/07/26 06:17:55;;;;;;;4.20;2.97;;;20.90;99.90;;;;;;5027213;28;20494;-71
2021/07/26 06:20:23;;;;;;;3.37;2.83;;;20.90;99.90;;;;;;5010812;28;20809;-72
2021/07/26 06:22:54;;;;;;;5.17;2.50;;;21.00;99.90;;;;;;5026298;28;21221;-71
2021/07/26 06:25:22;;;;;;;3.80;3.07;;;21.00;1.00;;;;;;5020648;28;20460;-71
2021/07/26 06:27:52;;;;;;;2.67;2.40;;;21.00;99.90;;;;;;5009951;28;20511;-72
2021/07/26 06:30:20;;;;;;;7.03;2.73;;;21.10;99.90;;;;;;5018658;28;20449;-72
2021/07/26 06:32:49;;;;;;;2.80;2.20;;;21.10;99.90;;;;;;5025107;28;20481;-72
2021/07/26 06:35:17;;;;;;;3.93;2.40;;;21.20;99.90;;;;;;5023319;28;20463;-73
2021/07/26 06:37:45;;;;;;;2.63;2.40;;;21.20;99.90;;;;;;5024562;28;20458;-71
2021/07/26 06:40:15;;;;;;;3.67;2.63;;;21.30;99.90;;;;;;5028007;28;20843;-71
2021/07/26 06:42:43;;;;;;;7.30;2.97;;;21.30;99.90;;;;;;5027382;28;20522;-71
2021/07/26 06:45:12;;;;;;;4.50;2.80;;;21.30;99.90;;;;;;5030272;28;20464;-71
2021/07/26 06:47:40;;;;;;;4.77;2.73;;;21.30;99.90;;;;;;5028933;28;20445;-72
2021/07/26 06:50:09;;;;;;;5.10;2.43;;;21.40;99.90;;;;;;5021454;28;20932;-73
2021/07/26 06:52:37;;;;;;;2.87;2.33;;;21.50;99.90;;;;;;5027665;28;20477;-71
2021/07/26 06:55:06;;;;;;;3.97;2.60;;;21.70;99.90;;;;;;5021530;28;20448;-71
2021/07/26 06:57:36;;;;;;;3.60;2.73;;;21.90;99.90;;;;;;5010783;28;20459;-72
2021/07/26 07:00:06;;;;;;;3.20;2.90;;;22.20;99.90;;;;;;5028051;28;20433;-73
2021/07/26 07:02:34;;;;;;;3.80;2.97;;;22.30;99.90;;;;;;5030646;28;20243;-72
2021/07/26 07:05:02;;;;;;;3.47;2.20;;;22.60;99.90;;;;;;5028611;28;20465;-74
2021/07/26 07:07:30;;;;;;;2.87;2.40;;;22.90;99.90;;;;;;5027628;28;20456;-72
2021/07/26 07:09:58;;;;;;;2.97;2.73;;;23.20;79.50;;;;;;5032018;28;20455;-71
2021/07/26 07:12:26;;;;;;;2.77;2.57;;;23.40;1.00;;;;;;5029216;28;20490;-72
2021/07/26 07:14:57;;;;;;;2.97;2.67;;;23.80;1.00;;;;;;5027873;28;20484;-71
2021/07/26 07:17:25;;;;;;;4.90;2.63;;;24.10;1.00;;;;;;5028901;28;20460;-74
2021/07/26 07:19:53;;;;;;;5.40;3.20;;;24.10;1.00;;;;;;5022378;28;20455;-71
2021/07/26 07:22:21;;;;;;;3.13;2.27;;;24.20;1.00;;;;;;5026736;28;20903;-72
2021/07/26 07:24:50;;;;;;;2.37;2.17;;;24.30;1.00;;;;;;5030758;28;20477;-71
2021/07/26 07:27:18;;;;;;;3.00;2.33;;;24.40;1.00;;;;;;5030233;28;20436;-71
2021/07/26 07:30:09;;;;;;;2.70;2.50;;;24.50;1.00;;;;;;5021251;28;20499;-71
2021/07/26 07:32:37;;;;;;;2.30;2.10;;;24.50;1.00;;;;;;5021745;28;20498;-71
2021/07/26 07:35:06;;;;;;;2.63;1.93;;;24.40;1.00;;;;;;5030412;28;20480;-71
2021/07/26 07:37:34;;;;;;;3.00;2.07;;;24.40;1.00;;;;;;5027853;28;20506;-71
2021/07/26 07:40:03;;;;;;;2.73;2.50;;;24.30;1.00;;;;;;5030259;28;20467;-71
2021/07/26 07:42:33;;;;;;;3.53;2.80;;;24.30;1.00;;;;;;5030272;28;20846;-71
2021/07/26 07:45:01;;;;;;;3.13;2.43;;;24.20;1.00;;;;;;5029787;28;20441;-71
2021/07/26 07:47:32;;;;;;;3.20;2.90;;;24.00;1.00;;;;;;5029350;28;20526;-71
2021/07/26 07:50:00;;;;;;;3.63;2.13;;;24.00;1.00;;;;;;5023089;28;20981;-71
2021/07/26 07:52:28;;;;;;;2.83;2.40;;;23.90;1.00;;;;;;5023345;28;20478;-72
2021/07/26 07:54:56;;;;;;;2.30;2.10;;;23.90;1.00;;;;;;5028925;28;20480;-71
2021/07/26 07:57:25;;;;;;;2.60;1.63;;;23.80;1.00;;;;;;5023820;28;20446;-72
2021/07/26 07:59:54;;;;;;;2.83;2.63;;;23.70;1.00;;;;;;5029023;28;20470;-72
2021/07/26 08:02:22;;;;;;;3.60;2.90;;;23.80;1.00;;;;;;5029400;28;20502;-71
2021/07/26 08:04:52;;;;;;;2.90;2.13;;;23.70;1.00;;;;;;5026239;28;20449;-72
2021/07/26 08:07:22;;;;;;;2.30;2.10;;;23.70;1.00;;;;;;5023226;28;20477;-72
2021/07/26 08:09:51;;;;;;;2.17;1.90;;;23.70;1.00;;;;;;5022482;28;20448;-72
2021/07/26 08:12:19;;;;;;;1.90;1.70;;;23.70;1.00;;;;;;5025221;28;20988;-72
2021/07/26 08:14:47;;;;;;;3.17;2.87;;;23.60;1.00;;;;;;5022701;28;20979;-71
2021/07/26 08:17:16;;;;;;;3.10;1.90;;;23.60;1.00;;;;;;5029232;28;20510;-71
2021/07/26 08:19:44;;;;;;;4.30;1.80;;;23.60;1.00;;;;;;5019308;28;20895;-72
2021/07/26 08:22:13;;;;;;;2.17;1.97;;;23.60;1.00;;;;;;5030192;28;20996;-72
2021/07/26 08:24:42;;;;;;;1.73;1.40;;;23.60;1.00;;;;;;5028769;28;20436;-71
2021/07/26 08:27:10;;;;;;;2.63;2.23;;;23.60;1.00;;;;;;5028723;28;20551;-71
2021/07/26 08:29:38;;;;;;;2.40;2.20;;;23.60;1.00;;;;;;5004107;28;20478;-71
2021/07/26 08:32:06;;;;;;;2.90;2.70;;;23.60;1.00;;;;;;5026503;28;21031;-71
2021/07/26 08:34:34;;;;;;;3.00;2.20;;;23.60;1.00;;;;;;5029547;28;20472;-71
2021/07/26 08:37:03;;;;;;;3.70;1.97;;;23.60;1.00;;;;;;5019626;28;20460;-71
2021/07/26 08:39:34;;;;;;;7.80;2.53;;;23.70;1.00;;;;;;5020595;28;21003;-71
2021/07/26 08:42:02;;;;;;;5.03;1.80;;;23.70;1.00;;;;;;5027834;28;20453;-71
2021/07/26 08:44:33;;;;;;;2.60;2.40;;;23.80;1.00;;;;;;5024994;28;20519;-71
2021/07/26 08:47:03;;;;;;;4.00;2.10;;;23.80;1.00;;;;;;5028104;28;20456;-71
2021/07/26 08:49:33;;;;;;;2.37;2.17;;;23.80;1.00;;;;;;5029229;28;21040;-71
2021/07/26 08:52:01;;;;;;;2.47;2.27;;;23.80;1.00;;;;;;5025411;28;20488;-71
2021/07/26 08:54:31;;;;;;;4.80;2.40;;;23.90;1.00;;;;;;5018855;28;20468;-71
2021/07/26 08:57:02;;;;;;;5.00;2.40;;;24.00;1.00;;;;;;5029279;28;20499;-72
2021/07/26 08:59:32;;;;;;;2.10;1.80;;;24.10;1.00;;;;;;5028765;28;20452;-72
2021/07/26 09:02:00;;;;;;;2.73;2.07;;;24.10;1.00;;;;;;5028972;28;21137;-71
2021/07/26 09:04:29;;;;;;;2.30;2.10;;;24.10;1.00;;;;;;5029512;28;20443;-72
2021/07/26 09:06:58;;;;;;;2.43;2.20;;;24.10;1.00;;;;;;5026229;28;20440;-73
2021/07/26 09:09:44;;;;;;;4.47;1.87;;;24.10;1.00;;;;;;5027254;28;20472;-72
2021/07/26 09:12:30;;;;;;;2.50;2.30;;;24.10;1.00;;;;;;5029592;28;20480;-72
2021/07/26 09:14:58;;;;;;;2.13;1.90;;;24.20;1.00;;;;;;5029499;28;20531;-72
2021/07/26 09:17:36;;;;;;;5.73;2.07;;;24.20;1.00;;;;;;5030332;28;20453;-70
2021/07/26 09:20:05;;;;;;;1.90;1.80;;;24.30;1.00;;;;;;5031563;28;20456;-72
2021/07/26 09:22:35;;;;;;;3.10;2.10;;;24.30;1.00;;;;;;5029477;28;20839;-72
2021/07/26 09:25:15;;;;;;;3.20;2.70;;;24.40;1.00;;;;;;5028714;28;20472;-73
2021/07/26 09:28:08;;;;;;;2.00;1.90;;;24.50;1.00;;;;;;5029286;28;20441;-75
2021/07/26 09:30:46;;;;;;;3.43;1.90;;;24.60;1.00;;;;;;5029294;28;20968;-73
2021/07/26 09:33:25;;;;;;;2.20;1.70;;;24.70;1.00;;;;;;5028992;28;20472;-72
2021/07/26 09:36:08;;;;;;;2.50;1.77;;;24.60;99.90;;;;;;5019556;28;20499;-72
2021/07/26 09:38:42;;;;;;;1.90;1.57;;;24.60;99.90;;;;;;5026928;28;20531;-72
2021/07/26 09:41:10;;;;;;;1.60;1.50;;;24.60;99.90;;;;;;5008033;28;20477;-71
2021/07/26 09:43:41;;;;;;;3.27;1.53;;;24.60;99.90;;;;;;5025018;28;20472;-73
2021/07/26 09:46:09;;;;;;;2.30;1.60;;;24.60;99.90;;;;;;5035266;28;20440;-73
2021/07/26 09:48:37;;;;;;;4.03;1.70;;;24.50;99.90;;;;;;5028703;28;20460;-72
2021/07/26 09:51:25;;;;;;;1.77;1.60;;;24.60;99.90;;;;;;5024078;28;20464;-72
2021/07/26 09:53:53;;;;;;;4.20;1.90;;;24.60;99.90;;;;;;5024321;28;20610;-72
2021/07/26 09:56:21;;;;;;;2.50;1.70;;;24.60;99.90;;;;;;5024271;28;20476;-73
2021/07/26 09:58:50;;;;;;;1.50;1.40;;;24.70;99.90;;;;;;5027913;28;20863;-73
2021/07/26 10:01:19;;;;;;;1.70;1.60;;;24.70;99.90;;;;;;5018981;28;20498;-72
2021/07/26 10:03:51;;;;;;;1.40;1.30;;;24.80;99.90;;;;;;5006012;28;20958;-73
2021/07/26 10:06:21;;;;;;;1.40;1.30;;;24.80;99.90;;;;;;5026531;28;20938;-72
2021/07/26 10:08:50;;;;;;;1.97;1.63;;;24.80;99.90;;;;;;5026152;28;20499;-72
2021/07/26 10:11:18;;;;;;;3.40;1.80;;;24.90;99.90;;;;;;5027737;28;20452;-75
2021/07/26 10:13:47;;;;;;;4.03;1.87;;;24.90;99.90;;;;;;5027079;28;20514;-72
2021/07/26 10:16:19;;;;;;;1.60;1.50;;;25.00;99.90;;;;;;5026078;28;21027;-72
2021/07/26 10:18:48;;;;;;;1.40;1.30;;;25.00;99.90;;;;;;5026592;28;20452;-72
2021/07/26 10:21:18;;;;;;;2.70;1.60;;;25.00;99.90;;;;;;5027945;28;20456;-71
2021/07/26 10:23:54;;;;;;;3.23;1.70;;;25.00;99.90;;;;;;5011202;28;21003;-72
2021/07/26 10:26:33;;;;;;;4.27;2.20;;;25.10;99.90;;;;;;5027990;28;20456;-72
2021/07/26 10:29:02;;;;;;;24.17;8.30;;;25.10;99.90;;;;;;5028947;28;20498;-72
2021/07/26 10:31:36;;;;;;;23.40;12.00;;;25.10;99.90;;;;;;5028009;28;20506;-72
2021/07/26 10:34:07;;;;;;;33.73;12.53;;;25.10;99.90;;;;;;5028397;28;20440;-72
2021/07/26 10:36:56;;;;;;;27.67;9.40;;;25.10;99.90;;;;;;5028239;28;20484;-73
2021/07/26 10:39:27;;;;;;;21.23;8.30;;;25.20;99.90;;;;;;5032614;28;20433;-74
2021/07/26 10:42:05;;;;;;;12.47;5.87;;;25.20;99.90;;;;;;5032571;28;20865;-71
2021/07/26 10:44:54;;;;;;;22.80;6.23;;;25.20;99.90;;;;;;5032769;28;21001;-72
2021/07/26 10:47:23;;;;;;;14.33;5.30;;;25.20;99.90;;;;;;5020070;28;21038;-73
2021/07/26 10:50:17;;;;;;;31.60;11.13;;;25.20;99.90;;;;;;5032089;28;20441;-71
2021/07/26 10:52:46;;;;;;;10.67;4.83;;;25.30;99.90;;;;;;5032523;28;20467;-71
2021/07/26 10:55:54;;;;;;;6.43;3.13;;;25.30;99.90;;;;;;5031221;28;20461;-71
2021/07/26 10:59:02;;;;;;;5.77;3.13;;;25.30;99.90;;;;;;4980896;28;20449;-74
2021/07/26 11:02:01;;;;;;;4.27;1.90;;;25.20;99.90;;;;;;5032149;28;20464;-72
2021/07/26 11:04:38;;;;;;;2.37;2.13;;;25.20;99.90;;;;;;5012531;28;20441;-72
2021/07/26 11:07:09;;;;;;;5.40;2.80;;;25.30;99.90;;;;;;5030074;28;20451;-73
2021/07/26 11:09:47;;;;;;;15.43;6.20;;;25.30;99.90;;;;;;5032442;28;20450;-73
2021/07/26 11:12:36;;;;;;;5.33;2.53;;;25.40;99.90;;;;;;5020890;28;20842;-72
2021/07/26 11:15:22;;;;;;;3.03;2.07;;;25.40;99.90;;;;;;5032301;28;20476;-74
2021/07/26 11:18:31;;;;;;;3.20;1.73;;;25.40;99.90;;;;;;5031793;28;20834;-77
2021/07/26 11:21:03;;;;;;;4.50;3.10;;;25.40;99.90;;;;;;5032332;28;20479;-74
2021/07/26 11:23:58;;;;;;;5.23;2.30;;;25.40;99.90;;;;;;5031889;28;20472;-75
2021/07/26 11:26:29;;;;;;;2.53;1.90;;;25.30;99.90;;;;;;5026952;28;20494;-80
2021/07/26 11:28:59;;;;;;;1.73;1.50;;;25.20;99.90;;;;;;5035961;28;20976;-79
2021/07/26 11:31:32;;;;;;;2.80;1.80;;;25.20;99.90;;;;;;5037096;28;20519;-80
2021/07/26 11:34:11;;;;;;;1.70;1.60;;;25.30;99.90;;;;;;5038679;28;20447;-81
2021/07/26 11:37:08;;;;;;;2.53;1.93;;;25.40;99.90;;;;;;5029747;28;20572;-78
2021/07/26 11:39:51;;;;;;;2.63;1.70;;;25.40;99.90;;;;;;5020470;28;20449;-80
2021/07/26 11:42:21;;;;;;;3.10;1.83;;;25.30;99.90;;;;;;5034933;28;20464;-80
2021/07/26 11:44:51;;;;;;;2.47;2.07;;;25.30;99.90;;;;;;5028181;28;20973;-81
2021/07/26 11:47:31;;;;;;;1.87;1.60;;;25.20;99.90;;;;;;5027837;28;20572;-82
2021/07/26 11:49:59;;;;;;;2.37;2.10;;;25.30;99.90;;;;;;5023946;28;20520;-81
2021/07/26 11:52:28;;;;;;;2.47;1.87;;;25.30;99.90;;;;;;5030978;28;20518;-83
2021/07/26 11:54:57;;;;;;;2.27;1.70;;;25.30;99.90;;;;;;5027450;28;20533;-82
2021/07/26 11:57:25;;;;;;;2.27;2.07;;;25.20;99.90;;;;;;5029606;28;20487;-82
2021/07/26 11:59:54;;;;;;;2.30;2.10;;;25.20;99.90;;;;;;5025131;28;20449;-82
2021/07/26 12:02:26;;;;;;;3.63;2.00;;;25.00;99.90;;;;;;5025542;28;20530;-83
2021/07/26 12:04:56;;;;;;;1.97;1.77;;;25.00;99.90;;;;;;5029207;28;20506;-82
2021/07/26 12:07:49;;;;;;;4.13;2.53;;;24.90;99.90;;;;;;5029346;28;20924;-83
2021/07/26 12:10:17;;;;;;;2.23;1.90;;;24.80;99.90;;;;;;5008422;28;20489;-82
2021/07/26 12:12:46;;;;;;;4.00;1.90;;;24.80;99.90;;;;;;5012387;28;20469;-82
2021/07/26 12:15:25;;;;;;;2.57;1.93;;;24.90;99.90;;;;;;5027938;28;20451;-83
2021/07/26 12:18:04;;;;;;;2.67;2.23;;;24.90;99.90;;;;;;5031992;28;20829;-81
2021/07/26 12:20:33;;;;;;;2.73;2.37;;;24.90;99.90;;;;;;5027528;28;20826;-83
2021/07/26 12:23:13;;;;;;;2.20;2.00;;;24.90;99.90;;;;;;5026802;28;20547;-83
2021/07/26 12:25:46;;;;;;;2.43;2.23;;;24.80;1.00;;;;;;5022756;28;20452;-81
2021/07/26 12:28:15;;;;;;;3.80;2.20;;;24.80;1.00;;;;;;5028155;28;20510;-82
2021/07/26 12:30:44;;;;;;;3.50;2.30;;;24.80;1.00;;;;;;5026185;28;20832;-81
2021/07/26 12:33:27;;;;;;;2.57;2.40;;;24.80;1.00;;;;;;5025340;28;20503;-81
2021/07/26 12:36:11;;;;;;;2.97;2.70;;;24.80;1.00;;;;;;5003812;28;20555;-81
2021/07/26 12:38:42;;;;;;;2.67;2.17;;;24.80;1.00;;;;;;5026097;28;20871;-81
2021/07/26 12:41:12;;;;;;;2.93;2.30;;;24.70;1.00;;;;;;5031230;28;20819;-82
2021/07/26 12:43:42;;;;;;;3.30;3.00;;;24.80;1.00;;;;;;5028267;28;20873;-81
2021/07/26 12:46:10;;;;;;;3.70;2.43;;;24.80;1.00;;;;;;5028240;28;20448;-81
2021/07/26 12:48:38;;;;;;;6.20;2.60;;;24.80;1.00;;;;;;5005289;28;20810;-81
2021/07/26 12:51:09;;;;;;;4.47;2.20;;;24.70;1.00;;;;;;5028664;28;21029;-80
2021/07/26 12:53:38;;;;;;;2.53;2.33;;;24.70;1.00;;;;;;5029092;28;20480;-81
2021/07/26 12:56:07;;;;;;;3.37;2.83;;;24.70;1.00;;;;;;5026366;28;20465;-82
2021/07/26 12:58:36;;;;;;;4.17;2.23;;;24.70;1.00;;;;;;5028778;28;20456;-82
2021/07/26 13:01:04;;;;;;;2.90;2.20;;;24.70;1.00;;;;;;5009148;28;20510;-81
2021/07/26 13:03:33;;;;;;;3.20;2.60;;;24.70;1.00;;;;;;5028413;28;20484;-83
2021/07/26 13:06:01;;;;;;;3.10;2.87;;;24.70;99.90;;;;;;5005686;28;20971;-81
2021/07/26 13:08:29;;;;;;;5.20;2.50;;;24.60;99.90;;;;;;5009669;28;20875;-82
2021/07/26 13:10:57;;;;;;;2.90;2.70;;;24.50;99.90;;;;;;5028908;28;20944;-82